sensor_id;sensor_type;location;lat;lon;timestamp;temperature;humidity
4602;DHT22;2313;48.552;9.370;2023-07-31T00:00:34;15.90;99.90
4602;DHT22;2313;48.552;9.370;2023-07-31T00:03:00;15.90;99.90
4602;DHT22;2313;48.552;9.370;2023-07-31T00:05:26;15.70;99.90
4602;DHT22;2313;48.552;9.370;2023-07-31T00:07:51;15.60;99.90
4602;DHT22;2313;48.552;9.370;2023-07-31T00:10:17;15.40;99.90
4602;DHT22;2313;48.552;9.370;2023-07-31T00:12:44;15.40;99.90
4602;DHT22;2313;48.552;9.370;2023-07-31T00:15:10;15.30;99.90
4602;DHT22;2313;48.552;9.370;2023-07-31T00:17:36;15.40;99.90
4602;DHT22;2313;48.552;9.370;2023-07-31T00:20:02;15.60;99.90
4602;DHT22;2313;48.552;9.370;2023-07-31T00:22:28;15.50;99.90
4602;DHT22;2313;48.552;9.370;2023-07-31T00:24:54;15.50;99.90
4602;DHT22;2313;48.552;9.370;2023-07-31T00:27:19;15.50;99.90
4602;DHT22;2313;48.552;9.370;2023-07-31T00:29:45;15.50;99.90
4602;DHT22;2313;48.552;9.370;2023-07-31T00:32:10;15.60;99.90
4602;DHT22;2313;48.552;9.370;2023-07-31T00:34:36;15.70;99.90
4602;DHT22;2313;48.552;9.370;2023-07-31T00:37:02;15.70;99.90
4602;DHT22;2313;48.552;9.370;2023-07-31T00:39:29;15.70;99.90
4602;DHT22;2313;48.552;9.370;2023-07-31T00:41:55;15.80;99.90
4602;DHT22;2313;48.552;9.370;2023-07-31T00:44:20;15.70;99.90
4602;DHT22;2313;48.552;9.370;2023-07-31T00:46:46;15.70;99.90
4602;DHT22;2313;48.552;9.370;2023-07-31T00:49:12;15.70;99.90
4602;DHT22;2313;48.552;9.370;2023-07-31T00:51:37;15.70;99.90
4602;DHT22;2313;48.552;9.370;2023-07-31T00:54:04;15.60;99.90
4602;DHT22;2313;48.552;9.370;2023-07-31T00:56:29;15.70;99.90
4602;DHT22;2313;48.552;9.370;2023-07-31T00:58:56;15.70;99.90
4602;DHT22;2313;48.552;9.370;2023-07-31T01:01:21;15.70;99.90
4602;DHT22;2313;48.552;9.370;2023-07-31T01:03:48;15.60;99.90
4602;DHT22;2313;48.552;9.370;2023-07-31T01:06:39;15.60;99.90
4602;DHT22;2313;48.552;9.370;2023-07-31T01:11:53;15.50;99.90
4602;DHT22;2313;48.552;9.370;2023-07-31T01:14:20;15.50;99.90
4602;DHT22;2313;48.552;9.370;2023-07-31T01:16:45;15.40;99.90
4602;DHT22;2313;48.552;9.370;2023-07-31T01:19:12;15.50;99.90
4602;DHT22;2313;48.552;9.370;2023-07-31T01:27:12;15.70;99.90
4602;DHT22;2313;48.552;9.370;2023-07-31T01:32:10;15.80;99.90
4602;DHT22;2313;48.552;9.370;2023-07-31T01:34:36;15.80;99.90
4602;DHT22;2313;48.552;9.370;2023-07-31T01:37:02;15.70;99.90
4602;DHT22;2313;48.552;9.370;2023-07-31T01:39:28;15.80;99.90
4602;DHT22;2313;48.552;9.370;2023-07-31T01:41:54;15.70;99.90
4602;DHT22;2313;48.552;9.370;2023-07-31T01:44:20;15.70;99.90
4602;DHT22;2313;48.552;9.370;2023-07-31T01:46:45;15.60;99.90
4602;DHT22;2313;48.552;9.370;2023-07-31T01:49:11;15.60;99.90
4602;DHT22;2313;48.552;9.370;2023-07-31T01:51:36;15.50;99.90
4602;DHT22;2313;48.552;9.370;2023-07-31T01:54:02;15.50;99.90
4602;DHT22;2313;48.552;9.370;2023-07-31T01:56:28;15.40;99.90
4602;DHT22;2313;48.552;9.370;2023-07-31T01:58:54;15.40;99.90
4602;DHT22;2313;48.552;9.370;2023-07-31T02:01:20;15.40;99.90
4602;DHT22;2313;48.552;9.370;2023-07-31T02:03:45;15.60;99.90
4602;DHT22;2313;48.552;9.370;2023-07-31T02:06:11;15.50;99.90
4602;DHT22;2313;48.552;9.370;2023-07-31T02:08:36;15.50;99.90
4602;DHT22;2313;48.552;9.370;2023-07-31T02:11:02;15.40;99.90
4602;DHT22;2313;48.552;9.370;2023-07-31T02:13:28;15.30;99.90
4602;DHT22;2313;48.552;9.370;2023-07-31T02:15:54;15.40;99.90
4602;DHT22;2313;48.552;9.370;2023-07-31T02:18:19;15.40;99.90
4602;DHT22;2313;48.552;9.370;2023-07-31T02:20:54;15.40;99.90
4602;DHT22;2313;48.552;9.370;2023-07-31T02:23:20;15.50;99.90
4602;DHT22;2313;48.552;9.370;2023-07-31T02:25:46;15.70;99.90
4602;DHT22;2313;48.552;9.370;2023-07-31T02:28:11;15.90;99.90
4602;DHT22;2313;48.552;9.370;2023-07-31T02:30:37;16.00;99.90
4602;DHT22;2313;48.552;9.370;2023-07-31T02:33:03;16.00;99.90
4602;DHT22;2313;48.552;9.370;2023-07-31T02:35:29;15.80;99.90
4602;DHT22;2313;48.552;9.370;2023-07-31T02:37:54;15.70;99.90
4602;DHT22;2313;48.552;9.370;2023-07-31T02:40:20;15.50;99.90
4602;DHT22;2313;48.552;9.370;2023-07-31T02:42:46;15.40;99.90
4602;DHT22;2313;48.552;9.370;2023-07-31T02:45:11;15.40;99.90
4602;DHT22;2313;48.552;9.370;2023-07-31T02:47:37;15.30;99.90
4602;DHT22;2313;48.552;9.370;2023-07-31T02:50:03;15.20;99.90
4602;DHT22;2313;48.552;9.370;2023-07-31T02:52:29;15.30;99.90
4602;DHT22;2313;48.552;9.370;2023-07-31T02:54:55;15.30;99.90
4602;DHT22;2313;48.552;9.370;2023-07-31T02:57:20;15.40;99.90
4602;DHT22;2313;48.552;9.370;2023-07-31T02:59:46;15.50;99.90
4602;DHT22;2313;48.552;9.370;2023-07-31T03:02:11;15.60;99.90
4602;DHT22;2313;48.552;9.370;2023-07-31T03:04:38;15.60;99.90
4602;DHT22;2313;48.552;9.370;2023-07-31T03:07:04;15.60;99.90
4602;DHT22;2313;48.552;9.370;2023-07-31T03:09:30;15.70;99.90
4602;DHT22;2313;48.552;9.370;2023-07-31T03:11:55;15.60;99.90
4602;DHT22;2313;48.552;9.370;2023-07-31T03:14:21;15.60;99.90
4602;DHT22;2313;48.552;9.370;2023-07-31T03:16:46;15.50;99.90
4602;DHT22;2313;48.552;9.370;2023-07-31T03:19:12;15.50;99.90
4602;DHT22;2313;48.552;9.370;2023-07-31T03:21:37;15.40;99.90
4602;DHT22;2313;48.552;9.370;2023-07-31T03:24:03;15.30;99.90
4602;DHT22;2313;48.552;9.370;2023-07-31T03:26:31;15.30;99.90
4602;DHT22;2313;48.552;9.370;2023-07-31T03:28:57;15.30;99.90
4602;DHT22;2313;48.552;9.370;2023-07-31T03:31:22;15.40;99.90
4602;DHT22;2313;48.552;9.370;2023-07-31T03:33:48;15.30;99.90
4602;DHT22;2313;48.552;9.370;2023-07-31T03:36:13;15.20;99.90
4602;DHT22;2313;48.552;9.370;2023-07-31T03:38:39;15.30;99.90
4602;DHT22;2313;48.552;9.370;2023-07-31T03:41:05;15.40;99.90
4602;DHT22;2313;48.552;9.370;2023-07-31T03:43:31;15.40;99.90
4602;DHT22;2313;48.552;9.370;2023-07-31T03:45:59;15.30;99.90
4602;DHT22;2313;48.552;9.370;2023-07-31T03:48:25;15.20;99.90
4602;DHT22;2313;48.552;9.370;2023-07-31T03:50:51;15.30;99.90
4602;DHT22;2313;48.552;9.370;2023-07-31T03:53:16;15.40;99.90
4602;DHT22;2313;48.552;9.370;2023-07-31T03:55:42;15.30;99.90
4602;DHT22;2313;48.552;9.370;2023-07-31T03:58:08;15.30;99.90
4602;DHT22;2313;48.552;9.370;2023-07-31T04:00:33;15.30;99.90
4602;DHT22;2313;48.552;9.370;2023-07-31T04:02:59;15.20;99.90
4602;DHT22;2313;48.552;9.370;2023-07-31T04:05:25;15.20;99.90
4602;DHT22;2313;48.552;9.370;2023-07-31T04:07:50;15.10;99.90
4602;DHT22;2313;48.552;9.370;2023-07-31T04:10:16;15.10;99.90
4602;DHT22;2313;48.552;9.370;2023-07-31T04:12:41;15.00;99.90
4602;DHT22;2313;48.552;9.370;2023-07-31T04:15:07;14.90;99.90
4602;DHT22;2313;48.552;9.370;2023-07-31T04:17:33;15.00;99.90
4602;DHT22;2313;48.552;9.370;2023-07-31T04:19:58;14.90;99.90
4602;DHT22;2313;48.552;9.370;2023-07-31T04:22:24;14.90;99.90
4602;DHT22;2313;48.552;9.370;2023-07-31T04:24:49;14.90;99.90
4602;DHT22;2313;48.552;9.370;2023-07-31T04:27:15;14.90;99.90
4602;DHT22;2313;48.552;9.370;2023-07-31T04:29:41;14.90;99.90
4602;DHT22;2313;48.552;9.370;2023-07-31T04:32:08;14.90;99.90
4602;DHT22;2313;48.552;9.370;2023-07-31T04:34:33;15.00;99.90
4602;DHT22;2313;48.552;9.370;2023-07-31T04:36:59;15.20;99.90
4602;DHT22;2313;48.552;9.370;2023-07-31T04:39:24;15.30;99.90
4602;DHT22;2313;48.552;9.370;2023-07-31T04:41:50;15.30;99.90
4602;DHT22;2313;48.552;9.370;2023-07-31T04:44:15;15.10;99.90
4602;DHT22;2313;48.552;9.370;2023-07-31T04:46:41;15.10;99.90
4602;DHT22;2313;48.552;9.370;2023-07-31T04:49:07;15.20;99.90
4602;DHT22;2313;48.552;9.370;2023-07-31T04:51:32;15.30;99.90
4602;DHT22;2313;48.552;9.370;2023-07-31T04:53:58;15.40;99.90
4602;DHT22;2313;48.552;9.370;2023-07-31T04:56:23;15.50;99.90
4602;DHT22;2313;48.552;9.370;2023-07-31T04:58:49;15.60;99.90
4602;DHT22;2313;48.552;9.370;2023-07-31T05:01:15;15.60;99.90
4602;DHT22;2313;48.552;9.370;2023-07-31T05:03:40;15.80;99.90
4602;DHT22;2313;48.552;9.370;2023-07-31T05:06:06;15.90;99.90
4602;DHT22;2313;48.552;9.370;2023-07-31T05:08:31;16.10;99.90
4602;DHT22;2313;48.552;9.370;2023-07-31T05:10:57;16.10;99.90
4602;DHT22;2313;48.552;9.370;2023-07-31T05:13:22;16.20;99.90
4602;DHT22;2313;48.552;9.370;2023-07-31T05:15:48;16.30;99.90
4602;DHT22;2313;48.552;9.370;2023-07-31T05:18:15;16.30;99.90
4602;DHT22;2313;48.552;9.370;2023-07-31T05:20:40;16.30;99.90
4602;DHT22;2313;48.552;9.370;2023-07-31T05:23:06;16.50;99.90
4602;DHT22;2313;48.552;9.370;2023-07-31T05:25:32;16.60;99.90
4602;DHT22;2313;48.552;9.370;2023-07-31T05:27:57;16.60;99.90
4602;DHT22;2313;48.552;9.370;2023-07-31T05:30:23;16.70;99.90
4602;DHT22;2313;48.552;9.370;2023-07-31T05:32:49;16.70;99.90
4602;DHT22;2313;48.552;9.370;2023-07-31T05:35:14;16.80;99.90
4602;DHT22;2313;48.552;9.370;2023-07-31T05:37:40;16.80;99.90
4602;DHT22;2313;48.552;9.370;2023-07-31T05:40:06;16.80;99.90
4602;DHT22;2313;48.552;9.370;2023-07-31T05:42:32;16.90;99.90
4602;DHT22;2313;48.552;9.370;2023-07-31T05:44:57;16.90;99.90
4602;DHT22;2313;48.552;9.370;2023-07-31T05:47:23;16.90;99.90
4602;DHT22;2313;48.552;9.370;2023-07-31T05:49:49;17.00;99.90
4602;DHT22;2313;48.552;9.370;2023-07-31T05:52:18;17.00;99.90
4602;DHT22;2313;48.552;9.370;2023-07-31T05:54:43;17.10;99.90
4602;DHT22;2313;48.552;9.370;2023-07-31T05:57:09;17.20;99.90
4602;DHT22;2313;48.552;9.370;2023-07-31T05:59:34;17.30;99.90
4602;DHT22;2313;48.552;9.370;2023-07-31T06:02:00;17.40;99.90
4602;DHT22;2313;48.552;9.370;2023-07-31T06:04:25;17.60;99.90
4602;DHT22;2313;48.552;9.370;2023-07-31T06:06:51;17.60;99.90
4602;DHT22;2313;48.552;9.370;2023-07-31T06:09:17;17.70;99.90
4602;DHT22;2313;48.552;9.370;2023-07-31T06:11:43;17.90;99.90
4602;DHT22;2313;48.552;9.370;2023-07-31T06:14:08;17.90;99.90
4602;DHT22;2313;48.552;9.370;2023-07-31T06:16:34;17.80;99.90
4602;DHT22;2313;48.552;9.370;2023-07-31T06:19:01;17.70;99.90
4602;DHT22;2313;48.552;9.370;2023-07-31T06:21:26;17.70;99.90
4602;DHT22;2313;48.552;9.370;2023-07-31T06:23:52;17.60;99.90
4602;DHT22;2313;48.552;9.370;2023-07-31T06:26:18;17.70;99.90
4602;DHT22;2313;48.552;9.370;2023-07-31T06:28:43;17.70;99.90
4602;DHT22;2313;48.552;9.370;2023-07-31T06:31:09;17.70;99.90
4602;DHT22;2313;48.552;9.370;2023-07-31T06:33:35;17.70;99.90
4602;DHT22;2313;48.552;9.370;2023-07-31T06:36:00;17.90;99.90
4602;DHT22;2313;48.552;9.370;2023-07-31T06:38:26;17.70;99.90
4602;DHT22;2313;48.552;9.370;2023-07-31T06:40:53;17.70;99.90
4602;DHT22;2313;48.552;9.370;2023-07-31T06:43:18;17.70;99.90
4602;DHT22;2313;48.552;9.370;2023-07-31T06:45:44;17.60;99.90
4602;DHT22;2313;48.552;9.370;2023-07-31T06:48:11;17.60;99.90
4602;DHT22;2313;48.552;9.370;2023-07-31T06:50:36;17.60;99.90
4602;DHT22;2313;48.552;9.370;2023-07-31T06:53:02;17.80;99.90
4602;DHT22;2313;48.552;9.370;2023-07-31T06:55:28;18.00;99.90
4602;DHT22;2313;48.552;9.370;2023-07-31T06:57:54;18.30;99.90
4602;DHT22;2313;48.552;9.370;2023-07-31T07:00:21;18.40;99.90
4602;DHT22;2313;48.552;9.370;2023-07-31T07:02:48;18.60;99.90
4602;DHT22;2313;48.552;9.370;2023-07-31T07:05:14;18.70;99.90
4602;DHT22;2313;48.552;9.370;2023-07-31T07:07:40;18.80;99.90
4602;DHT22;2313;48.552;9.370;2023-07-31T07:10:07;18.90;99.90
4602;DHT22;2313;48.552;9.370;2023-07-31T07:12:33;19.10;99.90
4602;DHT22;2313;48.552;9.370;2023-07-31T07:14:59;19.20;99.90
4602;DHT22;2313;48.552;9.370;2023-07-31T07:17:26;19.30;99.90
4602;DHT22;2313;48.552;9.370;2023-07-31T07:19:51;19.40;99.90
4602;DHT22;2313;48.552;9.370;2023-07-31T07:22:17;19.30;99.90
4602;DHT22;2313;48.552;9.370;2023-07-31T07:24:43;19.40;99.90
4602;DHT22;2313;48.552;9.370;2023-07-31T07:27:09;19.50;99.90
4602;DHT22;2313;48.552;9.370;2023-07-31T07:29:35;19.40;99.90
4602;DHT22;2313;48.552;9.370;2023-07-31T07:32:01;19.50;99.90
4602;DHT22;2313;48.552;9.370;2023-07-31T07:34:27;19.60;99.90
4602;DHT22;2313;48.552;9.370;2023-07-31T07:36:53;19.50;99.90
4602;DHT22;2313;48.552;9.370;2023-07-31T07:39:19;19.60;99.90
4602;DHT22;2313;48.552;9.370;2023-07-31T07:41:44;19.50;99.90
4602;DHT22;2313;48.552;9.370;2023-07-31T07:44:10;19.60;99.90
4602;DHT22;2313;48.552;9.370;2023-07-31T07:46:35;19.60;99.90
4602;DHT22;2313;48.552;9.370;2023-07-31T07:49:01;19.70;99.90
4602;DHT22;2313;48.552;9.370;2023-07-31T07:51:27;19.60;99.90
4602;DHT22;2313;48.552;9.370;2023-07-31T07:53:52;19.50;99.90
4602;DHT22;2313;48.552;9.370;2023-07-31T07:56:18;19.40;99.90
4602;DHT22;2313;48.552;9.370;2023-07-31T07:58:43;19.40;99.90
4602;DHT22;2313;48.552;9.370;2023-07-31T08:01:09;19.30;99.90
4602;DHT22;2313;48.552;9.370;2023-07-31T08:03:35;19.20;99.90
4602;DHT22;2313;48.552;9.370;2023-07-31T08:06:01;19.30;99.90
4602;DHT22;2313;48.552;9.370;2023-07-31T08:08:28;19.30;99.90
4602;DHT22;2313;48.552;9.370;2023-07-31T08:10:54;19.30;99.90
4602;DHT22;2313;48.552;9.370;2023-07-31T08:13:19;19.40;99.90
4602;DHT22;2313;48.552;9.370;2023-07-31T08:15:45;19.50;99.90
4602;DHT22;2313;48.552;9.370;2023-07-31T08:18:11;19.70;99.90
4602;DHT22;2313;48.552;9.370;2023-07-31T08:20:37;19.60;99.90
4602;DHT22;2313;48.552;9.370;2023-07-31T08:23:03;19.70;99.90
4602;DHT22;2313;48.552;9.370;2023-07-31T08:25:29;19.70;99.90
4602;DHT22;2313;48.552;9.370;2023-07-31T08:27:55;19.80;99.90
4602;DHT22;2313;48.552;9.370;2023-07-31T08:30:21;20.00;99.90
4602;DHT22;2313;48.552;9.370;2023-07-31T08:32:46;20.10;99.90
4602;DHT22;2313;48.552;9.370;2023-07-31T08:35:12;20.20;99.90
4602;DHT22;2313;48.552;9.370;2023-07-31T08:37:38;20.40;99.90
4602;DHT22;2313;48.552;9.370;2023-07-31T08:40:05;20.60;99.90
4602;DHT22;2313;48.552;9.370;2023-07-31T08:42:31;20.70;99.90
4602;DHT22;2313;48.552;9.370;2023-07-31T08:44:58;20.80;99.90
4602;DHT22;2313;48.552;9.370;2023-07-31T08:47:26;20.80;99.90
4602;DHT22;2313;48.552;9.370;2023-07-31T08:49:53;20.90;99.90
4602;DHT22;2313;48.552;9.370;2023-07-31T08:52:20;20.90;99.90
4602;DHT22;2313;48.552;9.370;2023-07-31T08:54:45;20.80;99.90
4602;DHT22;2313;48.552;9.370;2023-07-31T08:57:13;21.00;99.90
4602;DHT22;2313;48.552;9.370;2023-07-31T08:59:39;21.10;99.90
4602;DHT22;2313;48.552;9.370;2023-07-31T09:02:08;21.30;99.90
4602;DHT22;2313;48.552;9.370;2023-07-31T09:04:34;21.30;99.70
4602;DHT22;2313;48.552;9.370;2023-07-31T09:07:03;21.20;98.60
4602;DHT22;2313;48.552;9.370;2023-07-31T09:09:31;21.20;99.90
4602;DHT22;2313;48.552;9.370;2023-07-31T09:11:57;21.20;98.90
4602;DHT22;2313;48.552;9.370;2023-07-31T09:14:25;21.60;97.40
4602;DHT22;2313;48.552;9.370;2023-07-31T09:16:55;22.10;96.90
4602;DHT22;2313;48.552;9.370;2023-07-31T09:19:35;22.20;95.70
4602;DHT22;2313;48.552;9.370;2023-07-31T09:22:05;22.40;97.40
4602;DHT22;2313;48.552;9.370;2023-07-31T09:24:32;22.40;94.40
4602;DHT22;2313;48.552;9.370;2023-07-31T09:26:59;22.30;93.60
4602;DHT22;2313;48.552;9.370;2023-07-31T09:29:27;22.30;95.00
4602;DHT22;2313;48.552;9.370;2023-07-31T09:31:54;22.30;95.40
4602;DHT22;2313;48.552;9.370;2023-07-31T09:34:20;22.20;95.50
4602;DHT22;2313;48.552;9.370;2023-07-31T09:36:53;22.20;94.90
4602;DHT22;2313;48.552;9.370;2023-07-31T09:39:19;22.40;94.10
4602;DHT22;2313;48.552;9.370;2023-07-31T09:41:54;22.60;94.40
4602;DHT22;2313;48.552;9.370;2023-07-31T09:44:20;22.60;92.80
4602;DHT22;2313;48.552;9.370;2023-07-31T09:46:46;22.50;94.50
4602;DHT22;2313;48.552;9.370;2023-07-31T09:49:13;22.20;94.00
4602;DHT22;2313;48.552;9.370;2023-07-31T09:51:41;22.10;94.10
4602;DHT22;2313;48.552;9.370;2023-07-31T09:54:14;22.10;95.00
4602;DHT22;2313;48.552;9.370;2023-07-31T09:56:47;22.10;94.90
4602;DHT22;2313;48.552;9.370;2023-07-31T09:59:18;22.00;94.50
4602;DHT22;2313;48.552;9.370;2023-07-31T10:01:46;21.80;93.30
4602;DHT22;2313;48.552;9.370;2023-07-31T10:04:13;22.20;94.50
4602;DHT22;2313;48.552;9.370;2023-07-31T10:06:40;22.40;93.20
4602;DHT22;2313;48.552;9.370;2023-07-31T10:09:09;22.40;93.60
4602;DHT22;2313;48.552;9.370;2023-07-31T10:11:43;22.50;95.70
4602;DHT22;2313;48.552;9.370;2023-07-31T10:14:11;22.50;94.00
4602;DHT22;2313;48.552;9.370;2023-07-31T10:16:38;22.60;94.00
4602;DHT22;2313;48.552;9.370;2023-07-31T10:19:05;22.60;95.50
4602;DHT22;2313;48.552;9.370;2023-07-31T10:21:31;22.60;94.40
4602;DHT22;2313;48.552;9.370;2023-07-31T10:24:02;22.30;93.60
4602;DHT22;2313;48.552;9.370;2023-07-31T10:26:29;22.50;95.60
4602;DHT22;2313;48.552;9.370;2023-07-31T10:28:56;22.60;94.30
4602;DHT22;2313;48.552;9.370;2023-07-31T10:31:23;23.40;94.00
4602;DHT22;2313;48.552;9.370;2023-07-31T10:33:51;24.10;93.20
4602;DHT22;2313;48.552;9.370;2023-07-31T10:36:18;24.80;94.30
4602;DHT22;2313;48.552;9.370;2023-07-31T10:38:45;25.30;95.60
4602;DHT22;2313;48.552;9.370;2023-07-31T10:41:11;25.20;93.00
4602;DHT22;2313;48.552;9.370;2023-07-31T10:43:37;25.50;91.40
4602;DHT22;2313;48.552;9.370;2023-07-31T10:46:07;25.60;92.60
4602;DHT22;2313;48.552;9.370;2023-07-31T10:48:34;25.90;91.90
4602;DHT22;2313;48.552;9.370;2023-07-31T10:51:10;26.30;91.10
4602;DHT22;2313;48.552;9.370;2023-07-31T10:53:37;26.60;91.40
4602;DHT22;2313;48.552;9.370;2023-07-31T10:56:08;27.00;90.00
4602;DHT22;2313;48.552;9.370;2023-07-31T10:58:34;27.20;91.30
4602;DHT22;2313;48.552;9.370;2023-07-31T11:01:02;27.10;90.80
4602;DHT22;2313;48.552;9.370;2023-07-31T11:03:46;27.20;90.20
4602;DHT22;2313;48.552;9.370;2023-07-31T11:06:13;26.70;90.90
4602;DHT22;2313;48.552;9.370;2023-07-31T11:08:50;26.30;85.30
4602;DHT22;2313;48.552;9.370;2023-07-31T11:11:17;26.00;90.00
4602;DHT22;2313;48.552;9.370;2023-07-31T11:13:45;26.60;90.00
4602;DHT22;2313;48.552;9.370;2023-07-31T11:16:12;26.80;87.10
4602;DHT22;2313;48.552;9.370;2023-07-31T11:18:39;26.80;89.10
4602;DHT22;2313;48.552;9.370;2023-07-31T11:21:06;26.60;90.00
4602;DHT22;2313;48.552;9.370;2023-07-31T11:23:32;26.30;90.10
4602;DHT22;2313;48.552;9.370;2023-07-31T11:26:00;26.20;90.30
4602;DHT22;2313;48.552;9.370;2023-07-31T11:28:32;26.40;89.30
4602;DHT22;2313;48.552;9.370;2023-07-31T11:30:58;26.30;88.00
4602;DHT22;2313;48.552;9.370;2023-07-31T11:33:23;26.30;89.50
4602;DHT22;2313;48.552;9.370;2023-07-31T11:35:49;26.50;89.20
4602;DHT22;2313;48.552;9.370;2023-07-31T11:38:41;26.60;86.40
4602;DHT22;2313;48.552;9.370;2023-07-31T11:41:06;26.40;90.20
4602;DHT22;2313;48.552;9.370;2023-07-31T11:43:32;26.50;89.00
4602;DHT22;2313;48.552;9.370;2023-07-31T11:46:00;26.60;88.90
4602;DHT22;2313;48.552;9.370;2023-07-31T11:48:34;26.60;87.80
4602;DHT22;2313;48.552;9.370;2023-07-31T11:51:02;26.20;88.80
4602;DHT22;2313;48.552;9.370;2023-07-31T11:55:55;25.70;88.10
4602;DHT22;2313;48.552;9.370;2023-07-31T11:58:21;25.60;88.10
4602;DHT22;2313;48.552;9.370;2023-07-31T12:00:47;25.90;86.40
4602;DHT22;2313;48.552;9.370;2023-07-31T12:03:13;26.20;87.50
4602;DHT22;2313;48.552;9.370;2023-07-31T12:05:39;25.90;86.60
4602;DHT22;2313;48.552;9.370;2023-07-31T12:08:11;25.70;85.30
4602;DHT22;2313;48.552;9.370;2023-07-31T12:10:37;25.60;88.10
4602;DHT22;2313;48.552;9.370;2023-07-31T12:13:08;25.70;87.60
4602;DHT22;2313;48.552;9.370;2023-07-31T12:15:42;26.00;87.50
4602;DHT22;2313;48.552;9.370;2023-07-31T12:18:13;25.70;87.20
4602;DHT22;2313;48.552;9.370;2023-07-31T12:20:46;25.60;88.30
4602;DHT22;2313;48.552;9.370;2023-07-31T12:23:16;25.50;87.50
4602;DHT22;2313;48.552;9.370;2023-07-31T12:25:42;25.20;89.50
4602;DHT22;2313;48.552;9.370;2023-07-31T12:28:08;25.00;90.00
4602;DHT22;2313;48.552;9.370;2023-07-31T12:30:38;24.90;88.30
4602;DHT22;2313;48.552;9.370;2023-07-31T12:33:14;24.40;89.90
4602;DHT22;2313;48.552;9.370;2023-07-31T12:35:45;24.60;94.30
4602;DHT22;2313;48.552;9.370;2023-07-31T12:38:12;24.40;95.80
4602;DHT22;2313;48.552;9.370;2023-07-31T12:40:39;24.40;94.80
4602;DHT22;2313;48.552;9.370;2023-07-31T12:43:06;24.60;94.70
4602;DHT22;2313;48.552;9.370;2023-07-31T12:45:32;24.80;92.30
4602;DHT22;2313;48.552;9.370;2023-07-31T12:47:58;24.80;91.20
4602;DHT22;2313;48.552;9.370;2023-07-31T12:50:25;24.70;90.20
4602;DHT22;2313;48.552;9.370;2023-07-31T12:52:52;24.50;90.70
4602;DHT22;2313;48.552;9.370;2023-07-31T12:55:18;24.30;90.90
4602;DHT22;2313;48.552;9.370;2023-07-31T12:57:44;24.10;91.90
4602;DHT22;2313;48.552;9.370;2023-07-31T13:00:10;24.10;91.30
4602;DHT22;2313;48.552;9.370;2023-07-31T13:02:36;24.20;91.20
4602;DHT22;2313;48.552;9.370;2023-07-31T13:05:02;24.20;91.60
4602;DHT22;2313;48.552;9.370;2023-07-31T13:07:28;24.50;92.90
4602;DHT22;2313;48.552;9.370;2023-07-31T13:09:53;24.90;90.50
4602;DHT22;2313;48.552;9.370;2023-07-31T13:12:19;25.30;89.90
4602;DHT22;2313;48.552;9.370;2023-07-31T13:14:45;25.60;88.70
4602;DHT22;2313;48.552;9.370;2023-07-31T13:17:10;25.40;86.40
4602;DHT22;2313;48.552;9.370;2023-07-31T13:19:36;25.30;90.00
4602;DHT22;2313;48.552;9.370;2023-07-31T13:22:01;25.40;88.40
4602;DHT22;2313;48.552;9.370;2023-07-31T13:24:27;25.50;86.10
4602;DHT22;2313;48.552;9.370;2023-07-31T13:26:53;25.40;86.10
4602;DHT22;2313;48.552;9.370;2023-07-31T13:29:18;25.50;89.10
4602;DHT22;2313;48.552;9.370;2023-07-31T13:31:44;25.60;86.70
4602;DHT22;2313;48.552;9.370;2023-07-31T13:34:10;25.60;84.40
4602;DHT22;2313;48.552;9.370;2023-07-31T13:36:35;25.60;84.90
4602;DHT22;2313;48.552;9.370;2023-07-31T13:39:02;25.80;87.30
4602;DHT22;2313;48.552;9.370;2023-07-31T13:41:28;26.10;85.40
4602;DHT22;2313;48.552;9.370;2023-07-31T13:43:54;26.10;82.20
4602;DHT22;2313;48.552;9.370;2023-07-31T13:46:19;26.40;87.30
4602;DHT22;2313;48.552;9.370;2023-07-31T13:48:45;26.40;84.40
4602;DHT22;2313;48.552;9.370;2023-07-31T13:51:10;26.50;85.90
4602;DHT22;2313;48.552;9.370;2023-07-31T13:53:36;26.40;86.70
4602;DHT22;2313;48.552;9.370;2023-07-31T13:56:02;26.30;87.80
4602;DHT22;2313;48.552;9.370;2023-07-31T13:58:27;26.00;87.30
4602;DHT22;2313;48.552;9.370;2023-07-31T14:00:53;25.80;89.10
4602;DHT22;2313;48.552;9.370;2023-07-31T14:03:19;25.50;89.00
4602;DHT22;2313;48.552;9.370;2023-07-31T14:05:44;25.20;87.80
4602;DHT22;2313;48.552;9.370;2023-07-31T14:08:10;24.90;90.20
4602;DHT22;2313;48.552;9.370;2023-07-31T14:10:36;24.70;90.20
4602;DHT22;2313;48.552;9.370;2023-07-31T14:13:01;24.50;92.30
4602;DHT22;2313;48.552;9.370;2023-07-31T14:15:27;24.30;91.80
4602;DHT22;2313;48.552;9.370;2023-07-31T14:17:53;24.20;90.10
4602;DHT22;2313;48.552;9.370;2023-07-31T14:20:19;24.10;89.70
4602;DHT22;2313;48.552;9.370;2023-07-31T14:22:45;23.90;88.20
4602;DHT22;2313;48.552;9.370;2023-07-31T14:25:10;23.80;90.20
4602;DHT22;2313;48.552;9.370;2023-07-31T14:27:36;23.70;87.40
4602;DHT22;2313;48.552;9.370;2023-07-31T14:30:03;23.70;88.50
4602;DHT22;2313;48.552;9.370;2023-07-31T14:32:28;23.60;88.00
4602;DHT22;2313;48.552;9.370;2023-07-31T14:34:54;23.40;86.90
4602;DHT22;2313;48.552;9.370;2023-07-31T14:37:20;23.30;86.60
4602;DHT22;2313;48.552;9.370;2023-07-31T14:39:46;23.20;88.00
4602;DHT22;2313;48.552;9.370;2023-07-31T14:42:12;23.20;87.70
4602;DHT22;2313;48.552;9.370;2023-07-31T14:44:37;22.90;88.90
4602;DHT22;2313;48.552;9.370;2023-07-31T14:47:03;22.90;87.70
4602;DHT22;2313;48.552;9.370;2023-07-31T14:49:29;22.80;89.70
4602;DHT22;2313;48.552;9.370;2023-07-31T14:51:55;22.80;87.20
4602;DHT22;2313;48.552;9.370;2023-07-31T14:54:21;22.80;87.80
4602;DHT22;2313;48.552;9.370;2023-07-31T14:56:46;22.70;90.10
4602;DHT22;2313;48.552;9.370;2023-07-31T14:59:12;22.60;90.10
4602;DHT22;2313;48.552;9.370;2023-07-31T15:01:38;22.50;90.00
4602;DHT22;2313;48.552;9.370;2023-07-31T15:04:03;22.50;91.00
4602;DHT22;2313;48.552;9.370;2023-07-31T15:06:29;22.50;91.60
4602;DHT22;2313;48.552;9.370;2023-07-31T15:08:55;22.50;91.10
4602;DHT22;2313;48.552;9.370;2023-07-31T15:11:20;22.40;90.50
4602;DHT22;2313;48.552;9.370;2023-07-31T15:13:46;22.40;90.20
4602;DHT22;2313;48.552;9.370;2023-07-31T15:16:12;22.40;91.00
4602;DHT22;2313;48.552;9.370;2023-07-31T15:18:38;22.40;92.00
4602;DHT22;2313;48.552;9.370;2023-07-31T15:21:04;22.40;91.00
4602;DHT22;2313;48.552;9.370;2023-07-31T15:23:31;22.40;92.00
4602;DHT22;2313;48.552;9.370;2023-07-31T15:25:56;22.40;92.30
4602;DHT22;2313;48.552;9.370;2023-07-31T15:28:22;22.30;91.80
4602;DHT22;2313;48.552;9.370;2023-07-31T15:30:48;22.30;92.20
4602;DHT22;2313;48.552;9.370;2023-07-31T15:33:14;22.30;92.80
4602;DHT22;2313;48.552;9.370;2023-07-31T15:35:40;22.10;92.00
4602;DHT22;2313;48.552;9.370;2023-07-31T15:38:06;22.40;93.40
4602;DHT22;2313;48.552;9.370;2023-07-31T15:40:31;22.20;93.00
4602;DHT22;2313;48.552;9.370;2023-07-31T15:42:57;22.20;94.50
4602;DHT22;2313;48.552;9.370;2023-07-31T15:45:23;22.20;93.00
4602;DHT22;2313;48.552;9.370;2023-07-31T15:47:49;22.20;93.50
4602;DHT22;2313;48.552;9.370;2023-07-31T15:50:16;22.20;93.80
4602;DHT22;2313;48.552;9.370;2023-07-31T15:52:42;22.30;92.90
4602;DHT22;2313;48.552;9.370;2023-07-31T15:55:08;22.30;94.10
4602;DHT22;2313;48.552;9.370;2023-07-31T15:57:33;22.30;92.80
4602;DHT22;2313;48.552;9.370;2023-07-31T15:59:59;22.40;93.60
4602;DHT22;2313;48.552;9.370;2023-07-31T16:02:25;22.40;93.10
4602;DHT22;2313;48.552;9.370;2023-07-31T16:04:50;22.50;94.10
4602;DHT22;2313;48.552;9.370;2023-07-31T16:07:16;22.40;94.60
4602;DHT22;2313;48.552;9.370;2023-07-31T16:09:41;22.50;93.30